Airfield :
LOGIN :

Register | Disclaimer

   EN    FR    IT 

 










Legend :    VFR   Marginal VFR   IFR   Intensive IFR   Very Intensive IFR
Visi :
Ceiling :
>= 8 km
>= 3000ft
5 to 8 km
1000 to 3000 ft
1500m to 5 km
500 to 1000 ft
800 to 1500m
200 to 500 ft
< 800m
< 200 ft
Symbols :   Thunderstorms  Fog  Heavy snow  Heavy precipitations  Wind > 20 kt
SIGMETs :     Misc.  Thunderstorms  Icing  Turbulence  Mountain Waves  Volcanic Ashes







- Airport Elevation : 22 ft
- IATA code : LDY
- Download approach charts


EGAE - Londonderry Eglington

CURRENT METAR :
  • 130550Z 13016KT 9999 VCSH BKN024 07/04 Q1007

Expired Forecast.
No reported NOTAMs for that airfield.
2 SIGMETs reported for the Scottish FIR (EGPX) :
 
Severe turbulence
EGPX SIGMET 02 VALID 130426/130826 EGRR
EGPX SCOTTISH FIR SEV TURB FCST WI N6100 W00330 - N5836 W00323 - N5834 W00524 - N6100 W00700 - N6100 W00330 SFC/FL060 STNR NC=
Severe turbulence
EGPX SIGMET 01 VALID 130330/130700 EGRR
EGPX SCOTTISH FIR SEV TURB FCST SW OF LINE N5500 W00400 - N5900 W01000 SFC/FL060 STNR NC=



MET'MAP, your aeronautical weather chart ! - Copyright ORBIFLY December 2007 - Disclaimer

ORBIFLY MET'MAP TEAM :

Programming & Development : Alexandra Zaïnal
Concept & Development : Baudouin d'Aumeries
Co-Development & Prog : Marc-Olivier Méhu
Technical & hardware support : Manuel Goepfert

Contact : metmap@orbifly.com




SOURCES & CREDITS :

   NOAA